Terminal Aerodrome Forecast
Issued by NWS Greer, SC

Home | Current Version | Previous Version | Text Only | Print | Product List | Glossary On
Versions: 1 2 3 4 5 6 7 8 9 10 11 12 13 14 15 16 17 18 19 20 21 22 23 24 25 26 27 28
521
FTUS42 KGSP 081135
TAFAVL
TAF
KAVL 081135Z 0812/0912 VRB03KT P6SM SCT070 BKN120
     FM081500 22003KT P6SM VCSH SCT040 OVC060
      TEMPO 0819/0823 4SM -SHRASN OVC040
     FM090000 30007KT P6SM VCSH BKN045 OVC070 PROB30 0900/0906 3SM
      -SHSN OVC030
     FM090900 31005KT P6SM OVC035=

USA.gov is the U.S. government's official web portal to all federal, state and local government web resources and services.